sensor_id;sensor_type;location;lat;lon;timestamp;P1;durP1;ratioP1;P2;durP2;ratioP2
59338;SDS011;45117;50.960;5.500;2022-08-25T11:00:43;5.63;;;2.20;;
59338;SDS011;45117;50.960;5.500;2022-08-25T11:03:19;5.13;;;2.08;;
59338;SDS011;45117;50.960;5.500;2022-08-25T11:05:58;4.63;;;1.98;;
59338;SDS011;45117;50.960;5.500;2022-08-25T11:08:30;5.40;;;2.10;;
59338;SDS011;45117;50.960;5.500;2022-08-25T11:11:01;3.80;;;1.75;;
59338;SDS011;45117;50.960;5.500;2022-08-25T11:13:32;3.33;;;1.80;;
59338;SDS011;45117;50.960;5.500;2022-08-25T11:16:09;3.60;;;1.83;;
59338;SDS011;45117;50.960;5.500;2022-08-25T11:18:41;3.08;;;1.70;;
59338;SDS011;45117;50.960;5.500;2022-08-25T11:21:15;4.93;;;1.48;;
59338;SDS011;45117;50.960;5.500;2022-08-25T11:23:45;2.90;;;1.60;;
59338;SDS011;45117;50.960;5.500;2022-08-25T11:26:20;4.00;;;1.80;;
59338;SDS011;45117;50.960;5.500;2022-08-25T11:29:31;3.08;;;1.92;;
59338;SDS011;45117;50.960;5.500;2022-08-25T11:32:01;6.28;;;1.60;;
59338;SDS011;45117;50.960;5.500;2022-08-25T11:34:30;4.53;;;1.70;;
59338;SDS011;45117;50.960;5.500;2022-08-25T11:36:59;3.80;;;1.70;;
59338;SDS011;45117;50.960;5.500;2022-08-25T11:39:54;4.13;;;1.75;;
59338;SDS011;45117;50.960;5.500;2022-08-25T11:42:33;4.93;;;1.70;;
59338;SDS011;45117;50.960;5.500;2022-08-25T11:45:14;3.90;;;1.67;;
59338;SDS011;45117;50.960;5.500;2022-08-25T11:48:00;2.50;;;1.80;;
59338;SDS011;45117;50.960;5.500;2022-08-25T11:50:53;5.55;;;1.63;;
59338;SDS011;45117;50.960;5.500;2022-08-25T11:53:24;3.38;;;1.60;;
59338;SDS011;45117;50.960;5.500;2022-08-25T11:55:52;4.63;;;1.70;;
59338;SDS011;45117;50.960;5.500;2022-08-25T11:58:27;3.78;;;1.52;;
59338;SDS011;45117;50.960;5.500;2022-08-25T12:00:59;4.75;;;1.70;;
59338;SDS011;45117;50.960;5.500;2022-08-25T12:03:46;3.00;;;1.77;;
59338;SDS011;45117;50.960;5.500;2022-08-25T12:06:21;5.63;;;2.03;;
59338;SDS011;45117;50.960;5.500;2022-08-25T12:08:52;3.38;;;1.98;;
59338;SDS011;45117;50.960;5.500;2022-08-25T12:11:44;5.53;;;1.80;;
59338;SDS011;45117;50.960;5.500;2022-08-25T12:14:31;6.75;;;1.90;;
59338;SDS011;45117;50.960;5.500;2022-08-25T12:17:22;5.35;;;1.90;;
59338;SDS011;45117;50.960;5.500;2022-08-25T12:19:52;3.78;;;2.00;;
59338;SDS011;45117;50.960;5.500;2022-08-25T12:22:40;6.13;;;1.95;;
59338;SDS011;45117;50.960;5.500;2022-08-25T12:25:19;3.10;;;1.80;;
59338;SDS011;45117;50.960;5.500;2022-08-25T12:27:57;6.47;;;2.22;;
59338;SDS011;45117;50.960;5.500;2022-08-25T12:30:30;5.43;;;2.13;;
59338;SDS011;45117;50.960;5.500;2022-08-25T12:33:06;4.50;;;2.15;;
59338;SDS011;45117;50.960;5.500;2022-08-25T12:35:38;7.90;;;2.33;;
59338;SDS011;45117;50.960;5.500;2022-08-25T12:38:26;5.38;;;2.10;;
59338;SDS011;45117;50.960;5.500;2022-08-25T12:40:57;5.32;;;1.75;;
59338;SDS011;45117;50.960;5.500;2022-08-25T12:43:28;4.47;;;2.08;;
59338;SDS011;45117;50.960;5.500;2022-08-25T12:49:00;3.92;;;1.70;;
59338;SDS011;45117;50.960;5.500;2022-08-25T12:51:41;3.72;;;1.90;;
59338;SDS011;45117;50.960;5.500;2022-08-25T12:54:16;3.65;;;2.10;;
59338;SDS011;45117;50.960;5.500;2022-08-25T12:56:49;3.97;;;1.80;;
59338;SDS011;45117;50.960;5.500;2022-08-25T12:59:20;4.00;;;1.98;;
59338;SDS011;45117;50.960;5.500;2022-08-25T13:02:01;4.43;;;1.92;;
59338;SDS011;45117;50.960;5.500;2022-08-25T13:05:02;5.43;;;2.10;;
59338;SDS011;45117;50.960;5.500;2022-08-25T13:07:45;3.78;;;1.83;;
59338;SDS011;45117;50.960;5.500;2022-08-25T13:10:39;2.05;;;1.80;;
59338;SDS011;45117;50.960;5.500;2022-08-25T13:13:14;4.70;;;1.65;;
59338;SDS011;45117;50.960;5.500;2022-08-25T13:15:56;4.05;;;1.80;;
59338;SDS011;45117;50.960;5.500;2022-08-25T13:18:25;5.38;;;2.10;;
59338;SDS011;45117;50.960;5.500;2022-08-25T13:21:01;5.30;;;1.90;;
59338;SDS011;45117;50.960;5.500;2022-08-25T13:23:32;3.20;;;1.70;;
59338;SDS011;45117;50.960;5.500;2022-08-25T13:26:02;2.60;;;1.90;;
59338;SDS011;45117;50.960;5.500;2022-08-25T13:28:31;3.78;;;1.90;;
59338;SDS011;45117;50.960;5.500;2022-08-25T13:31:02;7.05;;;2.03;;
59338;SDS011;45117;50.960;5.500;2022-08-25T13:33:32;5.30;;;1.83;;
59338;SDS011;45117;50.960;5.500;2022-08-25T13:36:01;3.67;;;1.80;;
59338;SDS011;45117;50.960;5.500;2022-08-25T13:38:45;3.55;;;1.90;;
59338;SDS011;45117;50.960;5.500;2022-08-25T13:41:20;3.83;;;1.77;;
59338;SDS011;45117;50.960;5.500;2022-08-25T13:43:50;3.35;;;1.80;;
59338;SDS011;45117;50.960;5.500;2022-08-25T13:46:20;3.47;;;1.90;;
59338;SDS011;45117;50.960;5.500;2022-08-25T13:48:47;3.38;;;1.70;;
59338;SDS011;45117;50.960;5.500;2022-08-25T13:51:20;3.47;;;1.67;;
59338;SDS011;45117;50.960;5.500;2022-08-25T13:53:50;3.72;;;1.67;;
59338;SDS011;45117;50.960;5.500;2022-08-25T13:56:23;3.20;;;1.70;;
59338;SDS011;45117;50.960;5.500;2022-08-25T13:58:51;2.58;;;1.70;;
59338;SDS011;45117;50.960;5.500;2022-08-25T14:01:20;2.30;;;1.60;;
59338;SDS011;45117;50.960;5.500;2022-08-25T14:03:48;5.00;;;1.77;;
59338;SDS011;45117;50.960;5.500;2022-08-25T14:06:18;4.63;;;1.83;;
59338;SDS011;45117;50.960;5.500;2022-08-25T14:08:48;6.30;;;1.70;;
59338;SDS011;45117;50.960;5.500;2022-08-25T14:11:33;4.35;;;1.70;;
59338;SDS011;45117;50.960;5.500;2022-08-25T14:14:08;3.63;;;2.10;;
59338;SDS011;45117;50.960;5.500;2022-08-25T14:16:39;4.70;;;1.60;;
59338;SDS011;45117;50.960;5.500;2022-08-25T14:19:14;3.88;;;1.70;;
59338;SDS011;45117;50.960;5.500;2022-08-25T14:21:45;4.47;;;1.88;;
59338;SDS011;45117;50.960;5.500;2022-08-25T14:24:13;3.15;;;1.55;;
59338;SDS011;45117;50.960;5.500;2022-08-25T14:26:41;5.75;;;1.92;;
59338;SDS011;45117;50.960;5.500;2022-08-25T14:29:09;3.22;;;1.70;;
59338;SDS011;45117;50.960;5.500;2022-08-25T14:31:36;3.13;;;1.85;;
59338;SDS011;45117;50.960;5.500;2022-08-25T14:34:08;4.40;;;2.10;;
59338;SDS011;45117;50.960;5.500;2022-08-25T14:36:37;3.80;;;1.70;;
59338;SDS011;45117;50.960;5.500;2022-08-25T14:39:05;7.20;;;1.98;;
59338;SDS011;45117;50.960;5.500;2022-08-25T14:41:33;2.53;;;1.70;;
59338;SDS011;45117;50.960;5.500;2022-08-25T14:44:01;4.03;;;1.90;;
59338;SDS011;45117;50.960;5.500;2022-08-25T14:46:30;2.80;;;1.60;;
59338;SDS011;45117;50.960;5.500;2022-08-25T14:48:59;3.08;;;1.63;;
59338;SDS011;45117;50.960;5.500;2022-08-25T14:51:28;2.65;;;1.77;;
59338;SDS011;45117;50.960;5.500;2022-08-25T14:53:57;2.92;;;1.70;;
59338;SDS011;45117;50.960;5.500;2022-08-25T14:56:30;3.95;;;1.92;;
59338;SDS011;45117;50.960;5.500;2022-08-25T14:58:58;4.22;;;1.80;;
59338;SDS011;45117;50.960;5.500;2022-08-25T15:01:24;3.13;;;2.10;;
59338;SDS011;45117;50.960;5.500;2022-08-25T15:03:54;4.82;;;2.10;;
59338;SDS011;45117;50.960;5.500;2022-08-25T15:06:22;5.18;;;2.25;;
59338;SDS011;45117;50.960;5.500;2022-08-25T15:08:48;6.78;;;2.15;;
59338;SDS011;45117;50.960;5.500;2022-08-25T15:11:37;5.97;;;1.90;;
59338;SDS011;45117;50.960;5.500;2022-08-25T15:14:05;3.47;;;1.70;;
59338;SDS011;45117;50.960;5.500;2022-08-25T15:16:34;6.15;;;1.80;;
59338;SDS011;45117;50.960;5.500;2022-08-25T15:19:03;4.32;;;1.95;;
59338;SDS011;45117;50.960;5.500;2022-08-25T15:21:30;5.95;;;1.90;;
59338;SDS011;45117;50.960;5.500;2022-08-25T15:23:58;3.92;;;1.80;;
59338;SDS011;45117;50.960;5.500;2022-08-25T15:26:25;4.40;;;1.90;;
59338;SDS011;45117;50.960;5.500;2022-08-25T15:28:53;3.53;;;1.85;;
59338;SDS011;45117;50.960;5.500;2022-08-25T15:31:20;3.80;;;1.83;;
59338;SDS011;45117;50.960;5.500;2022-08-25T15:33:47;5.35;;;2.10;;
59338;SDS011;45117;50.960;5.500;2022-08-25T15:36:14;4.85;;;1.90;;
59338;SDS011;45117;50.960;5.500;2022-08-25T15:38:44;6.15;;;2.05;;
59338;SDS011;45117;50.960;5.500;2022-08-25T15:41:11;4.90;;;1.67;;
59338;SDS011;45117;50.960;5.500;2022-08-25T15:43:38;3.97;;;1.75;;
59338;SDS011;45117;50.960;5.500;2022-08-25T15:46:06;5.78;;;2.00;;
59338;SDS011;45117;50.960;5.500;2022-08-25T15:48:33;3.88;;;2.30;;
59338;SDS011;45117;50.960;5.500;2022-08-25T15:51:00;5.07;;;2.28;;
59338;SDS011;45117;50.960;5.500;2022-08-25T15:53:27;5.45;;;1.90;;
59338;SDS011;45117;50.960;5.500;2022-08-25T15:55:55;3.33;;;1.92;;
59338;SDS011;45117;50.960;5.500;2022-08-25T15:58:22;2.38;;;1.88;;
59338;SDS011;45117;50.960;5.500;2022-08-25T16:00:49;3.20;;;2.00;;
59338;SDS011;45117;50.960;5.500;2022-08-25T16:03:17;4.65;;;2.10;;
59338;SDS011;45117;50.960;5.500;2022-08-25T16:05:44;3.72;;;2.10;;
59338;SDS011;45117;50.960;5.500;2022-08-25T16:08:11;4.80;;;2.15;;
59338;SDS011;45117;50.960;5.500;2022-08-25T16:10:40;4.43;;;1.95;;
59338;SDS011;45117;50.960;5.500;2022-08-25T16:13:08;3.47;;;2.17;;
59338;SDS011;45117;50.960;5.500;2022-08-25T16:15:35;2.15;;;1.80;;
59338;SDS011;45117;50.960;5.500;2022-08-25T16:18:03;2.53;;;1.95;;
59338;SDS011;45117;50.960;5.500;2022-08-25T16:20:32;3.22;;;2.00;;
59338;SDS011;45117;50.960;5.500;2022-08-25T16:23:00;3.45;;;1.90;;
59338;SDS011;45117;50.960;5.500;2022-08-25T16:25:27;3.25;;;1.95;;
59338;SDS011;45117;50.960;5.500;2022-08-25T16:27:55;3.58;;;1.85;;
59338;SDS011;45117;50.960;5.500;2022-08-25T16:30:22;6.20;;;2.05;;
59338;SDS011;45117;50.960;5.500;2022-08-25T16:32:48;3.53;;;2.10;;
59338;SDS011;45117;50.960;5.500;2022-08-25T16:35:15;2.75;;;2.08;;
59338;SDS011;45117;50.960;5.500;2022-08-25T16:37:43;3.63;;;1.98;;
59338;SDS011;45117;50.960;5.500;2022-08-25T16:40:09;4.00;;;2.00;;
59338;SDS011;45117;50.960;5.500;2022-08-25T16:42:37;3.42;;;2.10;;
59338;SDS011;45117;50.960;5.500;2022-08-25T16:45:04;3.25;;;1.98;;
59338;SDS011;45117;50.960;5.500;2022-08-25T16:47:33;5.38;;;1.98;;
59338;SDS011;45117;50.960;5.500;2022-08-25T16:50:02;5.97;;;2.42;;
59338;SDS011;45117;50.960;5.500;2022-08-25T16:52:30;3.13;;;2.40;;
59338;SDS011;45117;50.960;5.500;2022-08-25T16:55:16;3.40;;;1.83;;
59338;SDS011;45117;50.960;5.500;2022-08-25T16:57:44;4.30;;;2.22;;
59338;SDS011;45117;50.960;5.500;2022-08-25T17:00:13;4.13;;;1.88;;
59338;SDS011;45117;50.960;5.500;2022-08-25T17:02:41;2.67;;;2.00;;
59338;SDS011;45117;50.960;5.500;2022-08-25T17:05:09;3.88;;;2.05;;
59338;SDS011;45117;50.960;5.500;2022-08-25T17:07:36;5.38;;;1.98;;
59338;SDS011;45117;50.960;5.500;2022-08-25T17:10:03;4.78;;;2.28;;
59338;SDS011;45117;50.960;5.500;2022-08-25T17:12:32;5.88;;;2.15;;
59338;SDS011;45117;50.960;5.500;2022-08-25T17:14:59;4.28;;;2.65;;
59338;SDS011;45117;50.960;5.500;2022-08-25T17:17:26;5.38;;;2.08;;
59338;SDS011;45117;50.960;5.500;2022-08-25T17:19:53;3.20;;;2.20;;
59338;SDS011;45117;50.960;5.500;2022-08-25T17:22:19;4.97;;;2.30;;
59338;SDS011;45117;50.960;5.500;2022-08-25T17:24:46;3.80;;;2.28;;
59338;SDS011;45117;50.960;5.500;2022-08-25T17:27:13;4.70;;;2.30;;
59338;SDS011;45117;50.960;5.500;2022-08-25T17:29:41;6.05;;;2.38;;
59338;SDS011;45117;50.960;5.500;2022-08-25T17:32:07;3.40;;;2.10;;
59338;SDS011;45117;50.960;5.500;2022-08-25T17:34:34;5.68;;;2.58;;
59338;SDS011;45117;50.960;5.500;2022-08-25T17:37:00;3.85;;;2.70;;
59338;SDS011;45117;50.960;5.500;2022-08-25T17:39:27;4.70;;;2.53;;
59338;SDS011;45117;50.960;5.500;2022-08-25T17:41:54;6.03;;;2.30;;
59338;SDS011;45117;50.960;5.500;2022-08-25T17:44:20;2.58;;;2.10;;
59338;SDS011;45117;50.960;5.500;2022-08-25T17:46:48;4.47;;;2.50;;
59338;SDS011;45117;50.960;5.500;2022-08-25T17:49:16;3.55;;;2.05;;
59338;SDS011;45117;50.960;5.500;2022-08-25T17:51:43;4.82;;;2.47;;
59338;SDS011;45117;50.960;5.500;2022-08-25T17:54:10;4.20;;;2.47;;
59338;SDS011;45117;50.960;5.500;2022-08-25T17:56:37;3.33;;;2.10;;
59338;SDS011;45117;50.960;5.500;2022-08-25T17:59:03;5.47;;;2.28;;
59338;SDS011;45117;50.960;5.500;2022-08-25T18:01:31;3.88;;;2.30;;
59338;SDS011;45117;50.960;5.500;2022-08-25T18:04:02;5.10;;;2.50;;
59338;SDS011;45117;50.960;5.500;2022-08-25T18:06:30;3.60;;;2.30;;
59338;SDS011;45117;50.960;5.500;2022-08-25T18:08:57;5.93;;;2.30;;
59338;SDS011;45117;50.960;5.500;2022-08-25T18:11:25;5.38;;;2.40;;
59338;SDS011;45117;50.960;5.500;2022-08-25T18:13:53;6.07;;;2.33;;
59338;SDS011;45117;50.960;5.500;2022-08-25T18:16:20;4.72;;;2.40;;
59338;SDS011;45117;50.960;5.500;2022-08-25T18:18:47;4.03;;;2.38;;
59338;SDS011;45117;50.960;5.500;2022-08-25T18:21:16;4.93;;;2.50;;
59338;SDS011;45117;50.960;5.500;2022-08-25T18:23:44;5.90;;;2.65;;
59338;SDS011;45117;50.960;5.500;2022-08-25T18:26:12;5.85;;;2.40;;
59338;SDS011;45117;50.960;5.500;2022-08-25T18:28:39;7.10;;;2.72;;
59338;SDS011;45117;50.960;5.500;2022-08-25T18:31:06;4.72;;;2.90;;
59338;SDS011;45117;50.960;5.500;2022-08-25T18:33:33;5.68;;;2.65;;
59338;SDS011;45117;50.960;5.500;2022-08-25T18:36:00;5.05;;;2.60;;
59338;SDS011;45117;50.960;5.500;2022-08-25T18:38:28;4.80;;;2.85;;
59338;SDS011;45117;50.960;5.500;2022-08-25T18:41:12;7.68;;;4.80;;
59338;SDS011;45117;50.960;5.500;2022-08-25T18:43:38;5.63;;;2.95;;
59338;SDS011;45117;50.960;5.500;2022-08-25T18:46:05;6.40;;;3.00;;
59338;SDS011;45117;50.960;5.500;2022-08-25T18:48:32;6.57;;;3.15;;
59338;SDS011;45117;50.960;5.500;2022-08-25T18:50:59;7.63;;;3.13;;
59338;SDS011;45117;50.960;5.500;2022-08-25T18:53:28;12.40;;;3.80;;
59338;SDS011;45117;50.960;5.500;2022-08-25T18:55:56;6.47;;;3.15;;
59338;SDS011;45117;50.960;5.500;2022-08-25T18:58:23;7.78;;;3.40;;
59338;SDS011;45117;50.960;5.500;2022-08-25T19:00:50;5.55;;;3.20;;
59338;SDS011;45117;50.960;5.500;2022-08-25T19:03:17;8.75;;;3.33;;
59338;SDS011;45117;50.960;5.500;2022-08-25T19:05:46;7.68;;;3.00;;
59338;SDS011;45117;50.960;5.500;2022-08-25T19:08:14;8.05;;;3.20;;
59338;SDS011;45117;50.960;5.500;2022-08-25T19:10:47;9.45;;;6.13;;
59338;SDS011;45117;50.960;5.500;2022-08-25T19:13:15;6.70;;;3.90;;
59338;SDS011;45117;50.960;5.500;2022-08-25T19:15:42;5.45;;;3.28;;
59338;SDS011;45117;50.960;5.500;2022-08-25T19:18:10;8.02;;;3.65;;
59338;SDS011;45117;50.960;5.500;2022-08-25T19:20:38;5.57;;;3.42;;
59338;SDS011;45117;50.960;5.500;2022-08-25T19:23:05;7.05;;;3.17;;
59338;SDS011;45117;50.960;5.500;2022-08-25T19:25:32;6.78;;;3.40;;
59338;SDS011;45117;50.960;5.500;2022-08-25T19:28:01;7.80;;;3.70;;
59338;SDS011;45117;50.960;5.500;2022-08-25T19:30:29;6.78;;;3.55;;
59338;SDS011;45117;50.960;5.500;2022-08-25T19:32:58;6.82;;;4.00;;
59338;SDS011;45117;50.960;5.500;2022-08-25T19:35:26;10.13;;;4.07;;
59338;SDS011;45117;50.960;5.500;2022-08-25T19:37:57;8.43;;;4.30;;
59338;SDS011;45117;50.960;5.500;2022-08-25T19:40:24;7.60;;;4.63;;
59338;SDS011;45117;50.960;5.500;2022-08-25T19:42:53;7.97;;;4.60;;
59338;SDS011;45117;50.960;5.500;2022-08-25T19:45:21;8.52;;;4.82;;
59338;SDS011;45117;50.960;5.500;2022-08-25T19:47:49;11.50;;;5.30;;
59338;SDS011;45117;50.960;5.500;2022-08-25T19:50:16;14.95;;;5.93;;
59338;SDS011;45117;50.960;5.500;2022-08-25T19:52:43;8.68;;;5.15;;
59338;SDS011;45117;50.960;5.500;2022-08-25T19:55:11;8.63;;;5.65;;
59338;SDS011;45117;50.960;5.500;2022-08-25T19:57:37;8.02;;;6.38;;
59338;SDS011;45117;50.960;5.500;2022-08-25T20:00:05;10.82;;;6.65;;
59338;SDS011;45117;50.960;5.500;2022-08-25T20:02:36;10.35;;;6.53;;
59338;SDS011;45117;50.960;5.500;2022-08-25T20:05:03;13.07;;;6.72;;
59338;SDS011;45117;50.960;5.500;2022-08-25T20:07:30;10.30;;;6.88;;
59338;SDS011;45117;50.960;5.500;2022-08-25T20:09:57;10.45;;;6.80;;
59338;SDS011;45117;50.960;5.500;2022-08-25T20:12:25;9.70;;;6.93;;
59338;SDS011;45117;50.960;5.500;2022-08-25T20:14:53;11.35;;;7.28;;
59338;SDS011;45117;50.960;5.500;2022-08-25T20:17:20;12.63;;;7.97;;
59338;SDS011;45117;50.960;5.500;2022-08-25T20:19:49;11.13;;;7.88;;
59338;SDS011;45117;50.960;5.500;2022-08-25T20:22:16;15.32;;;10.10;;
59338;SDS011;45117;50.960;5.500;2022-08-25T20:24:42;17.02;;;8.27;;
59338;SDS011;45117;50.960;5.500;2022-08-25T20:27:15;15.25;;;10.20;;
59338;SDS011;45117;50.960;5.500;2022-08-25T20:29:44;14.02;;;12.15;;
59338;SDS011;45117;50.960;5.500;2022-08-25T20:32:11;16.95;;;12.10;;
59338;SDS011;45117;50.960;5.500;2022-08-25T20:34:38;20.90;;;13.93;;
59338;SDS011;45117;50.960;5.500;2022-08-25T20:37:06;19.35;;;14.77;;
59338;SDS011;45117;50.960;5.500;2022-08-25T20:39:34;17.92;;;13.30;;
59338;SDS011;45117;50.960;5.500;2022-08-25T20:42:01;19.92;;;14.20;;
59338;SDS011;45117;50.960;5.500;2022-08-25T20:44:27;31.70;;;21.92;;
59338;SDS011;45117;50.960;5.500;2022-08-25T20:46:58;32.35;;;24.98;;
59338;SDS011;45117;50.960;5.500;2022-08-25T20:49:26;35.30;;;25.05;;
59338;SDS011;45117;50.960;5.500;2022-08-25T20:51:53;32.75;;;23.88;;
59338;SDS011;45117;50.960;5.500;2022-08-25T20:54:21;33.65;;;24.27;;
59338;SDS011;45117;50.960;5.500;2022-08-25T20:56:50;34.22;;;23.90;;
59338;SDS011;45117;50.960;5.500;2022-08-25T20:59:18;34.25;;;26.45;;
59338;SDS011;45117;50.960;5.500;2022-08-25T21:01:45;37.10;;;27.58;;
59338;SDS011;45117;50.960;5.500;2022-08-25T21:04:13;34.00;;;26.35;;
59338;SDS011;45117;50.960;5.500;2022-08-25T21:06:42;41.65;;;32.10;;
59338;SDS011;45117;50.960;5.500;2022-08-25T21:09:10;36.28;;;27.88;;
59338;SDS011;45117;50.960;5.500;2022-08-25T21:11:39;37.97;;;27.08;;
59338;SDS011;45117;50.960;5.500;2022-08-25T21:14:06;44.10;;;33.28;;
59338;SDS011;45117;50.960;5.500;2022-08-25T21:16:34;47.15;;;34.42;;
59338;SDS011;45117;50.960;5.500;2022-08-25T21:19:00;44.05;;;32.55;;
59338;SDS011;45117;50.960;5.500;2022-08-25T21:21:27;48.83;;;36.80;;
59338;SDS011;45117;50.960;5.500;2022-08-25T21:23:54;56.35;;;39.13;;
59338;SDS011;45117;50.960;5.500;2022-08-25T21:26:22;53.17;;;37.83;;
59338;SDS011;45117;50.960;5.500;2022-08-25T21:28:51;52.00;;;37.92;;
59338;SDS011;45117;50.960;5.500;2022-08-25T21:31:18;50.42;;;37.72;;
59338;SDS011;45117;50.960;5.500;2022-08-25T21:33:46;47.70;;;36.05;;
59338;SDS011;45117;50.960;5.500;2022-08-25T21:36:13;58.15;;;41.65;;
59338;SDS011;45117;50.960;5.500;2022-08-25T21:38:41;53.20;;;38.35;;
59338;SDS011;45117;50.960;5.500;2022-08-25T21:41:08;43.65;;;32.72;;
59338;SDS011;45117;50.960;5.500;2022-08-25T21:43:35;60.67;;;41.38;;
59338;SDS011;45117;50.960;5.500;2022-08-25T21:46:05;51.65;;;37.15;;
59338;SDS011;45117;50.960;5.500;2022-08-25T21:48:35;54.97;;;39.17;;
59338;SDS011;45117;50.960;5.500;2022-08-25T21:51:04;53.50;;;37.63;;
59338;SDS011;45117;50.960;5.500;2022-08-25T21:53:31;52.00;;;37.30;;
59338;SDS011;45117;50.960;5.500;2022-08-25T21:56:00;48.10;;;35.38;;
59338;SDS011;45117;50.960;5.500;2022-08-25T21:58:29;50.40;;;37.67;;
59338;SDS011;45117;50.960;5.500;2022-08-25T22:00:56;49.83;;;36.85;;
59338;SDS011;45117;50.960;5.500;2022-08-25T22:03:24;55.40;;;39.28;;
59338;SDS011;45117;50.960;5.500;2022-08-25T22:05:50;48.30;;;36.50;;
59338;SDS011;45117;50.960;5.500;2022-08-25T22:08:17;49.85;;;37.10;;
59338;SDS011;45117;50.960;5.500;2022-08-25T22:10:44;52.60;;;36.15;;
59338;SDS011;45117;50.960;5.500;2022-08-25T22:13:10;49.72;;;35.58;;
59338;SDS011;45117;50.960;5.500;2022-08-25T22:15:37;47.58;;;34.72;;
59338;SDS011;45117;50.960;5.500;2022-08-25T22:18:03;48.22;;;33.80;;
59338;SDS011;45117;50.960;5.500;2022-08-25T22:20:31;51.83;;;35.80;;
59338;SDS011;45117;50.960;5.500;2022-08-25T22:22:58;49.13;;;36.10;;
59338;SDS011;45117;50.960;5.500;2022-08-25T22:25:24;47.75;;;34.88;;
59338;SDS011;45117;50.960;5.500;2022-08-25T22:27:51;42.08;;;31.65;;
59338;SDS011;45117;50.960;5.500;2022-08-25T22:30:18;46.35;;;33.95;;
59338;SDS011;45117;50.960;5.500;2022-08-25T22:32:44;45.80;;;32.22;;
59338;SDS011;45117;50.960;5.500;2022-08-25T22:35:11;43.45;;;30.20;;
59338;SDS011;45117;50.960;5.500;2022-08-25T22:37:39;43.80;;;30.85;;
59338;SDS011;45117;50.960;5.500;2022-08-25T22:40:06;44.65;;;28.63;;
59338;SDS011;45117;50.960;5.500;2022-08-25T22:42:34;41.92;;;28.50;;
59338;SDS011;45117;50.960;5.500;2022-08-25T22:45:00;39.60;;;27.83;;
59338;SDS011;45117;50.960;5.500;2022-08-25T22:47:27;38.97;;;27.27;;
59338;SDS011;45117;50.960;5.500;2022-08-25T22:49:53;38.33;;;27.25;;
59338;SDS011;45117;50.960;5.500;2022-08-25T22:52:20;41.05;;;27.75;;
59338;SDS011;45117;50.960;5.500;2022-08-25T22:54:48;36.50;;;25.25;;
59338;SDS011;45117;50.960;5.500;2022-08-25T22:57:14;34.65;;;22.90;;
59338;SDS011;45117;50.960;5.500;2022-08-25T22:59:41;32.83;;;22.60;;
59338;SDS011;45117;50.960;5.500;2022-08-25T23:02:07;32.40;;;21.80;;
59338;SDS011;45117;50.960;5.500;2022-08-25T23:04:34;29.60;;;19.70;;
59338;SDS011;45117;50.960;5.500;2022-08-25T23:07:02;32.33;;;19.98;;
59338;SDS011;45117;50.960;5.500;2022-08-25T23:09:29;30.58;;;21.33;;
59338;SDS011;45117;50.960;5.500;2022-08-25T23:11:57;30.08;;;18.92;;
59338;SDS011;45117;50.960;5.500;2022-08-25T23:14:24;27.67;;;18.63;;
59338;SDS011;45117;50.960;5.500;2022-08-25T23:16:50;27.48;;;18.00;;
59338;SDS011;45117;50.960;5.500;2022-08-25T23:19:17;27.58;;;17.50;;
59338;SDS011;45117;50.960;5.500;2022-08-25T23:21:44;32.08;;;18.35;;
59338;SDS011;45117;50.960;5.500;2022-08-25T23:24:29;27.30;;;17.67;;
59338;SDS011;45117;50.960;5.500;2022-08-25T23:26:58;26.35;;;16.38;;
59338;SDS011;45117;50.960;5.500;2022-08-25T23:29:25;24.92;;;14.15;;
59338;SDS011;45117;50.960;5.500;2022-08-25T23:31:52;26.38;;;14.80;;
59338;SDS011;45117;50.960;5.500;2022-08-25T23:34:19;32.08;;;16.58;;
59338;SDS011;45117;50.960;5.500;2022-08-25T23:36:46;25.02;;;14.45;;
59338;SDS011;45117;50.960;5.500;2022-08-25T23:39:12;23.67;;;13.90;;
59338;SDS011;45117;50.960;5.500;2022-08-25T23:41:39;24.25;;;13.82;;
59338;SDS011;45117;50.960;5.500;2022-08-25T23:44:08;22.52;;;13.75;;
59338;SDS011;45117;50.960;5.500;2022-08-25T23:46:34;22.88;;;13.35;;
59338;SDS011;45117;50.960;5.500;2022-08-25T23:49:01;24.45;;;13.57;;
59338;SDS011;45117;50.960;5.500;2022-08-25T23:51:30;20.38;;;12.32;;
59338;SDS011;45117;50.960;5.500;2022-08-25T23:53:58;22.98;;;11.20;;
59338;SDS011;45117;50.960;5.500;2022-08-25T23:56:28;22.25;;;12.30;;
59338;SDS011;45117;50.960;5.500;2022-08-25T23:58:55;22.27;;;12.13;;
